Cape Town, South Africa

5:35 AM SAST on November 26, 2014 (GMT +0200)
St Duma, Kuilsriver | Change Station
CLOSE
Current Station
Personal Weather Station
Location: Cape Town, WESTERN CAPE
Elevation: 236 ft
Nearby Weather Stations

Elev 236 ft 33.94 °S, 18.69 °E | Updated 3 seconds ago

Clear
Clear
64.9 °F
Feels Like 64.9 °F
N
11.3
Wind Variable Wind from North
Gusts 24.4 mph

Today
High -- | Low -- °F
--% Chance of Precip.
Yesterday
High -- | Low -- °F
Precip. -- in
5:28 AM 7:37 PM
Waxing Crescent, 16% visible
Pressure 29.74 in
Visibility -9999.0 miles
Clouds
Dew Point 59 °F
Humidity 82%
Rainfall 0.00 in
Snow Depth Not available.
UV 0.0 out of 12
Pollen Not available.
Air Quality Not available.
Flu Activity Not available.
METAR FACT 260300Z 35017KT CAVOK 20/13 Q1007 NOSIG

More Conditions Fewer Conditions

Pressure 29.74 in
Visibility -9999.0 miles
Clouds
Dew Point 59 °F
Humidity 82%
Rainfall 0.00 in
Snow Depth Not available.
UV 0.0 out of 12
Pollen Not available.
Air Quality Not available.
Flu Activity Not available.
METAR FACT 260300Z 35017KT CAVOK 20/13 Q1007 NOSIG

More Conditions Fewer Conditions

10-Day Weather Forecast

Almanac

Astronomy

Nov. 26, 2014 Rise Set
Actual Time
Civil Twilight
Nautical Twilight
Astronomical Twilight
Moon
Length of Visible Light
Length of Day
Tomorrow will be .
, % of the Moon is Illuminated

Today's Extremes

Country Highs Country Lows

Community

WunderPhotos

Upload Photos

1,773,676 photos uploaded!

WunderBlogs® & News

Nearby

Air Quality

  Air Quality AQ Index Pollutant
Not available.

Snow Depth

Station Depth Elevation

Earthquake Activity

City Distance Mag. Time & Date
Minimum magnitude displayed is 2.5.

Coastal Water Temperatures

Place Temperature

Nearby Weather Stations